createdAt,value
2022-09-24T00:01:41.678Z,98420.38
2022-09-24T00:04:11.598Z,98417.28
2022-09-24T00:06:42.002Z,98404.94
2022-09-24T00:09:10.601Z,98403.03
2022-09-24T00:11:39.658Z,98403.03
2022-09-24T00:14:09.019Z,98400.53
2022-09-24T00:16:37.129Z,98396.97
2022-09-24T00:19:05.437Z,98394.94
2022-09-24T00:21:34.576Z,98397.47
2022-09-24T00:24:03.966Z,98398.31
2022-09-24T00:26:49.246Z,98394.09
2022-09-24T00:29:21.005Z,98390.03
2022-09-24T00:31:49.607Z,98385.91
2022-09-24T00:34:17.427Z,98383.72
2022-09-24T00:36:46.735Z,98378.16
2022-09-24T00:39:15.281Z,98378.16
2022-09-24T00:41:44.836Z,98378.84
2022-09-24T00:44:54.442Z,98385.88
2022-09-24T00:47:31.453Z,98384.41
2022-09-24T00:50:24.365Z,98380.63
2022-09-24T00:52:57.224Z,98374.09
2022-09-24T00:55:26.059Z,98374.47
2022-09-24T00:57:57.196Z,98362.75
2022-09-24T01:00:26.923Z,98355.00
2022-09-24T01:03:00.182Z,98347.66
2022-09-24T01:05:27.992Z,98347.69
2022-09-24T01:07:58.095Z,98347.25
2022-09-24T01:10:49.098Z,98344.47
2022-09-24T01:13:44.736Z,98348.22
2022-09-24T01:16:28.793Z,98343.28
2022-09-24T01:19:09.144Z,98346.75
2022-09-24T01:21:45.361Z,98343.25
2022-09-24T01:24:40.385Z,98339.16
2022-09-24T01:27:14.941Z,98333.06
2022-09-24T01:29:57.635Z,98344.03
2022-09-24T01:32:32.469Z,98323.31
2022-09-24T01:35:03.272Z,98317.94
2022-09-24T01:37:34.994Z,98320.16
2022-09-24T01:40:06.121Z,98315.97
2022-09-24T01:42:36.863Z,98317.88
2022-09-24T01:45:07.252Z,98322.53
2022-09-24T01:47:38.223Z,98311.78
2022-09-24T01:50:07.257Z,98313.31
2022-09-24T01:52:39.722Z,98316.88
2022-09-24T01:55:12.193Z,98311.63
2022-09-24T01:57:46.197Z,98305.59
2022-09-24T02:00:17.475Z,98306.31
2022-09-24T02:02:50.533Z,98298.59
2022-09-24T02:05:24.854Z,98288.16
2022-09-24T02:07:58.917Z,98292.03
2022-09-24T02:10:32.319Z,98294.78
2022-09-24T02:13:04.672Z,98291.16
2022-09-24T02:15:41.250Z,98286.25
2022-09-24T02:18:12.756Z,98290.31
2022-09-24T02:20:43.422Z,98295.31
2022-09-24T02:23:12.374Z,98298.66
2022-09-24T02:25:44.121Z,98298.19
2022-09-24T02:28:11.950Z,98298.19
2022-09-24T02:30:45.196Z,98292.63
2022-09-24T02:33:30.025Z,98286.06
2022-09-24T02:35:58.452Z,98289.38
2022-09-24T02:38:26.151Z,98286.13
2022-09-24T02:40:55.261Z,98293.63
2022-09-24T02:43:23.198Z,98290.66
2022-09-24T02:45:52.247Z,98278.78
2022-09-24T02:48:20.296Z,98285.28
2022-09-24T02:50:47.990Z,98276.63
2022-09-24T02:53:15.739Z,98286.94
2022-09-24T02:55:43.428Z,98290.72
2022-09-24T02:58:13.573Z,98291.44
2022-09-24T03:00:41.265Z,98294.84
2022-09-24T03:03:10.392Z,98293.22
2022-09-24T03:05:41.130Z,98286.91
2022-09-24T03:08:11.141Z,98289.00
2022-09-24T03:10:39.102Z,98284.75
2022-09-24T03:13:10.778Z,98275.22
2022-09-24T03:15:40.712Z,98282.72
2022-09-24T03:18:09.776Z,98273.78
2022-09-24T03:20:37.575Z,98274.34
2022-09-24T03:23:05.332Z,98270.84
2022-09-24T03:25:33.137Z,98267.06
2022-09-24T03:28:00.822Z,98267.72
2022-09-24T03:30:45.965Z,98267.72
2022-09-24T03:33:17.318Z,98256.63
2022-09-24T03:35:47.302Z,98253.25
2022-09-24T03:38:17.379Z,98259.78
2022-09-24T03:40:45.119Z,98249.03
2022-09-24T03:43:12.867Z,98255.34
2022-09-24T03:45:40.512Z,98253.78
2022-09-24T03:48:08.213Z,98262.16
2022-09-24T03:50:38.779Z,98255.44
2022-09-24T03:53:06.460Z,98262.97
2022-09-24T03:55:34.254Z,98252.66
2022-09-24T03:58:02.115Z,98252.25
2022-09-24T04:00:29.822Z,98249.91
2022-09-24T04:02:57.615Z,98255.06
2022-09-24T04:05:25.476Z,98255.44
2022-09-24T04:07:56.893Z,98254.84
2022-09-24T04:10:25.591Z,98256.94
2022-09-24T04:12:53.339Z,98259.00
2022-09-24T04:15:21.636Z,98251.00
2022-09-24T04:17:51.536Z,98249.00
2022-09-24T04:20:22.866Z,98245.44
2022-09-24T04:22:51.083Z,98237.25
2022-09-24T04:25:21.547Z,98233.69
2022-09-24T04:27:54.687Z,98245.00
2022-09-24T04:30:23.248Z,98247.88
2022-09-24T04:32:51.720Z,98252.34
2022-09-24T04:35:20.234Z,98256.75
2022-09-24T04:37:50.550Z,98245.81
2022-09-24T04:40:19.890Z,98242.34
2022-09-24T04:42:47.598Z,98241.91
2022-09-24T04:45:20.277Z,98238.91
2022-09-24T04:47:52.484Z,98231.19
2022-09-24T04:50:21.324Z,98229.72
2022-09-24T04:52:53.987Z,98230.31
2022-09-24T04:55:23.922Z,98231.34
2022-09-24T04:57:52.107Z,98221.50
2022-09-24T05:00:21.781Z,98223.91
2022-09-24T05:02:57.416Z,98225.31
2022-09-24T05:05:25.187Z,98217.19
2022-09-24T05:07:52.925Z,98223.06
2022-09-24T05:10:20.951Z,98223.81
2022-09-24T05:12:50.128Z,98233.13
2022-09-24T05:15:19.279Z,98237.19
2022-09-24T05:17:47.658Z,98237.47
2022-09-24T05:20:18.115Z,98232.84
2022-09-24T05:22:47.718Z,98241.50
2022-09-24T05:25:16.727Z,98245.91
2022-09-24T05:27:46.812Z,98237.78
2022-09-24T05:30:17.275Z,98238.34
2022-09-24T05:32:46.238Z,98242.53
2022-09-24T05:35:13.948Z,98239.75
2022-09-24T05:37:42.557Z,98242.25
2022-09-24T05:40:28.747Z,98247.69
2022-09-24T05:43:02.332Z,98245.56
2022-09-24T05:45:34.175Z,98252.69
2022-09-24T05:48:04.216Z,98257.88
2022-09-24T05:50:34.782Z,98256.31
2022-09-24T05:53:06.245Z,98257.41
2022-09-24T05:55:34.426Z,98259.78
2022-09-24T05:58:07.219Z,98261.78
2022-09-24T06:00:36.945Z,98263.72
2022-09-24T06:03:07.738Z,98266.19
2022-09-24T06:05:36.376Z,98263.72
2022-09-24T06:08:04.806Z,98259.16
2022-09-24T06:10:32.884Z,98268.38
2022-09-24T06:13:00.570Z,98266.88
2022-09-24T06:15:28.445Z,98266.59
2022-09-24T06:17:57.598Z,98261.44
2022-09-24T06:20:26.155Z,98259.31
2022-09-24T06:22:57.448Z,98264.84
2022-09-24T06:25:25.947Z,98269.88
2022-09-24T06:28:00.190Z,98265.41
2022-09-24T06:30:29.135Z,98277.44
2022-09-24T06:33:03.014Z,98269.16
2022-09-24T06:35:30.762Z,98280.75
2022-09-24T06:37:59.018Z,98293.53
2022-09-24T06:40:27.507Z,98293.72
2022-09-24T06:42:57.249Z,98297.31
2022-09-24T06:45:25.281Z,98291.88
2022-09-24T06:47:54.005Z,98282.75
2022-09-24T06:50:24.518Z,98283.09
2022-09-24T06:52:52.499Z,98285.19
2022-09-24T06:55:20.658Z,98284.88
2022-09-24T06:57:48.600Z,98291.44
2022-09-24T07:00:18.368Z,98291.63
2022-09-24T07:02:52.715Z,98288.28
2022-09-24T07:05:20.432Z,98286.16
2022-09-24T07:07:49.557Z,98280.06
2022-09-24T07:10:19.624Z,98285.22
2022-09-24T07:12:47.348Z,98282.19
2022-09-24T07:15:15.186Z,98292.66
2022-09-24T07:17:42.954Z,98288.06
2022-09-24T07:20:11.077Z,98306.28
2022-09-24T07:22:40.886Z,98296.03
2022-09-24T07:25:12.136Z,98296.53
2022-09-24T07:27:40.404Z,98299.00
2022-09-24T07:30:10.847Z,98305.38
2022-09-24T07:32:38.610Z,98308.66
2022-09-24T07:35:07.458Z,98314.81
2022-09-24T07:37:35.123Z,98316.81
2022-09-24T07:40:03.060Z,98315.31
2022-09-24T07:42:32.436Z,98324.94
2022-09-24T07:45:00.873Z,98321.25
2022-09-24T07:47:28.574Z,98328.59
2022-09-24T07:49:56.321Z,98321.38
2022-09-24T07:52:24.148Z,98331.78
2022-09-24T07:54:52.305Z,98328.50
2022-09-24T07:57:20.016Z,98330.47
2022-09-24T07:59:51.495Z,98332.53
2022-09-24T08:02:20.180Z,98328.94
2022-09-24T08:04:48.261Z,98325.09
2022-09-24T08:07:16.010Z,98322.00
2022-09-24T08:09:43.715Z,98327.66
2022-09-24T08:12:12.817Z,98326.50
2022-09-24T08:14:41.726Z,98325.72
2022-09-24T08:17:10.851Z,98323.03
2022-09-24T08:19:43.174Z,98327.31
2022-09-24T08:22:10.880Z,98334.34
2022-09-24T08:24:38.644Z,98329.75
2022-09-24T08:27:06.483Z,98323.59
2022-09-24T08:29:34.727Z,98335.03
2022-09-24T08:32:04.575Z,98343.53
2022-09-24T08:34:38.269Z,98330.72
2022-09-24T08:37:06.045Z,98338.13
2022-09-24T08:39:33.792Z,98330.88
2022-09-24T08:42:04.633Z,98333.25
2022-09-24T08:44:56.072Z,98329.91
2022-09-24T08:47:37.484Z,98330.25
2022-09-24T08:50:15.459Z,98336.59
2022-09-24T08:52:56.178Z,98338.63
2022-09-24T08:55:29.958Z,98340.28
2022-09-24T08:58:09.420Z,98335.25
2022-09-24T09:00:44.556Z,98342.28
2022-09-24T09:03:23.101Z,98343.13
2022-09-24T09:05:57.717Z,98345.28
2022-09-24T09:08:58.596Z,98337.22
2022-09-24T09:11:29.594Z,98337.56
2022-09-24T09:14:01.277Z,98339.47
2022-09-24T09:16:40.965Z,98336.78
2022-09-24T09:19:15.133Z,98333.94
2022-09-24T09:21:47.677Z,98331.84
2022-09-24T09:24:18.929Z,98329.47
2022-09-24T09:26:50.348Z,98330.25
2022-09-24T09:29:18.610Z,98336.69
2022-09-24T09:31:56.702Z,98328.31
2022-09-24T09:34:40.440Z,98324.91
2022-09-24T09:37:25.510Z,98323.44
2022-09-24T09:40:09.906Z,98332.47
2022-09-24T09:42:41.057Z,98333.00
2022-09-24T09:45:27.731Z,98317.28
2022-09-24T09:47:58.020Z,98316.84
2022-09-24T09:50:29.156Z,98324.63
2022-09-24T09:52:58.464Z,98328.34
2022-09-24T09:55:28.329Z,98315.38
2022-09-24T09:58:10.598Z,98322.00
2022-09-24T10:00:41.427Z,98325.22
2022-09-24T10:03:23.276Z,98318.06
2022-09-24T10:05:55.636Z,98299.00
2022-09-24T10:08:26.059Z,98299.63
2022-09-24T10:10:56.223Z,98308.38
2022-09-24T10:13:24.481Z,98312.63
2022-09-24T10:15:54.575Z,98311.53
2022-09-24T10:18:31.176Z,98311.41
2022-09-24T10:21:02.629Z,98320.22
2022-09-24T10:23:36.727Z,98322.06
2022-09-24T10:26:06.427Z,98322.84
2022-09-24T10:28:53.388Z,98323.47
2022-09-24T10:31:23.786Z,98319.28
2022-09-24T10:33:54.837Z,98319.53
2022-09-24T10:36:24.207Z,98309.25
2022-09-24T10:39:05.928Z,98323.44
2022-09-24T10:41:36.089Z,98322.28
2022-09-24T10:44:07.066Z,98327.31
2022-09-24T10:47:04.645Z,98326.47
2022-09-24T10:49:49.023Z,98315.41
2022-09-24T10:52:35.051Z,98321.84
2022-09-24T10:55:16.009Z,98322.59
2022-09-24T10:57:55.729Z,98328.69
2022-09-24T11:00:25.452Z,98316.34
2022-09-24T11:03:29.166Z,98310.63
2022-09-24T11:06:02.359Z,98316.16
2022-09-24T11:08:52.373Z,98312.00
2022-09-24T11:11:32.748Z,98312.31
2022-09-24T11:14:14.366Z,98305.72
2022-09-24T11:17:04.743Z,98305.91
2022-09-24T11:20:00.874Z,98317.47
2022-09-24T11:22:44.652Z,98310.69
2022-09-24T11:25:27.077Z,98311.00
2022-09-24T11:28:10.622Z,98308.66
2022-09-24T11:30:47.794Z,98303.63
2022-09-24T11:33:30.212Z,98303.00
2022-09-24T11:36:17.169Z,98306.91
2022-09-24T11:39:04.355Z,98303.16
2022-09-24T11:41:45.505Z,98302.53
2022-09-24T11:44:46.912Z,98301.09
2022-09-24T11:47:31.081Z,98296.53
2022-09-24T11:50:16.899Z,98291.34
2022-09-24T11:52:53.432Z,98293.94
2022-09-24T11:55:31.706Z,98296.16
2022-09-24T11:58:14.241Z,98287.28
2022-09-24T12:00:47.265Z,98292.59
2022-09-24T12:03:25.879Z,98286.75
2022-09-24T12:06:00.576Z,98281.31
2022-09-24T12:08:36.684Z,98281.72
2022-09-24T12:11:10.716Z,98277.91
2022-09-24T12:13:42.788Z,98286.25
2022-09-24T12:16:14.221Z,98279.41
2022-09-24T12:18:50.451Z,98274.91
2022-09-24T12:21:22.085Z,98281.56
2022-09-24T12:24:02.178Z,98279.47
2022-09-24T12:26:31.482Z,98273.16
2022-09-24T12:29:21.120Z,98284.13
2022-09-24T12:32:15.788Z,98268.41
2022-09-24T12:34:51.800Z,98276.50
2022-09-24T12:37:24.052Z,98277.34
2022-09-24T12:39:58.006Z,98279.03
2022-09-24T12:42:37.608Z,98278.66
2022-09-24T12:45:08.992Z,98279.72
2022-09-24T12:47:48.094Z,98276.69
2022-09-24T12:50:25.363Z,98272.31
2022-09-24T12:52:53.056Z,98273.94
2022-09-24T12:55:25.992Z,98279.09
2022-09-24T12:57:57.879Z,98271.16
2022-09-24T13:00:41.137Z,98273.75
2022-09-24T13:03:33.447Z,98260.25
2022-09-24T13:06:05.898Z,98258.75
2022-09-24T13:08:38.937Z,98269.16
2022-09-24T13:11:29.357Z,98261.38
2022-09-24T13:14:22.617Z,98270.13
2022-09-24T13:16:53.300Z,98263.56
2022-09-24T13:19:28.865Z,98263.59
2022-09-24T13:22:01.477Z,98261.16
2022-09-24T13:24:31.108Z,98263.78
2022-09-24T13:27:21.918Z,98263.44
2022-09-24T13:30:03.486Z,98256.63
2022-09-24T13:32:35.392Z,98252.13
2022-09-24T13:35:07.145Z,98246.38
2022-09-24T13:37:45.778Z,98252.69
2022-09-24T13:40:19.642Z,98251.44
2022-09-24T13:42:52.070Z,98255.06
2022-09-24T13:45:22.451Z,98250.41
2022-09-24T13:47:55.874Z,98259.28
2022-09-24T13:50:26.965Z,98255.13
2022-09-24T13:53:01.611Z,98254.41
2022-09-24T13:55:32.286Z,98252.38
2022-09-24T13:58:00.529Z,98254.06
2022-09-24T14:00:29.329Z,98245.66
2022-09-24T14:03:02.089Z,98245.53
2022-09-24T14:05:31.484Z,98247.50
2022-09-24T14:08:05.815Z,98243.00
2022-09-24T14:10:35.336Z,98244.91
2022-09-24T14:13:11.460Z,98247.19
2022-09-24T14:15:39.202Z,98232.63
2022-09-24T14:18:12.669Z,98232.97
2022-09-24T14:20:40.811Z,98238.16
2022-09-24T14:23:19.790Z,98235.19
2022-09-24T14:25:50.113Z,98237.16
2022-09-24T14:28:18.379Z,98232.94
2022-09-24T14:30:52.311Z,98229.34
2022-09-24T14:33:25.371Z,98231.16
2022-09-24T14:35:55.147Z,98234.31
2022-09-24T14:38:29.172Z,98232.75
2022-09-24T14:41:00.687Z,98237.13
2022-09-24T14:43:35.167Z,98237.22
2022-09-24T14:46:05.248Z,98235.00
2022-09-24T14:48:35.240Z,98230.91
2022-09-24T14:51:03.193Z,98233.56
2022-09-24T14:53:34.591Z,98225.88
2022-09-24T14:56:08.411Z,98231.00
2022-09-24T14:58:37.296Z,98230.88
2022-09-24T15:01:13.811Z,98231.00
2022-09-24T15:03:44.474Z,98237.19
2022-09-24T15:06:20.485Z,98232.00
2022-09-24T15:09:05.037Z,98230.59
2022-09-24T15:11:35.109Z,98236.53
2022-09-24T15:14:13.313Z,98228.97
2022-09-24T15:16:41.260Z,98229.88
2022-09-24T15:19:19.521Z,98232.75
2022-09-24T15:21:48.525Z,98231.06
2022-09-24T15:24:18.374Z,98228.56
2022-09-24T15:26:48.054Z,98225.06
2022-09-24T15:29:21.268Z,98216.44
2022-09-24T15:31:51.253Z,98205.75
2022-09-24T15:34:20.229Z,98214.00
2022-09-24T15:36:53.957Z,98208.44
2022-09-24T15:39:23.574Z,98199.22
2022-09-24T15:41:51.279Z,98204.94
2022-09-24T15:44:22.922Z,98207.31
2022-09-24T15:46:52.042Z,98204.44
2022-09-24T15:49:21.989Z,98212.75
2022-09-24T15:51:51.818Z,98214.41
2022-09-24T15:54:19.508Z,98207.50
2022-09-24T15:56:52.381Z,98211.78
2022-09-24T15:59:21.369Z,98209.28
2022-09-24T16:01:50.545Z,98205.91
2022-09-24T16:04:18.420Z,98210.28
2022-09-24T16:06:46.206Z,98214.94
2022-09-24T16:09:13.906Z,98215.75
2022-09-24T16:11:41.740Z,98219.03
2022-09-24T16:14:11.462Z,98212.06
2022-09-24T16:16:39.444Z,98208.81
2022-09-24T16:19:08.443Z,98216.03
2022-09-24T16:21:36.567Z,98216.44
2022-09-24T16:24:04.494Z,98216.69
2022-09-24T16:26:32.464Z,98225.44
2022-09-24T16:29:00.234Z,98217.31
2022-09-24T16:31:29.357Z,98222.44
2022-09-24T16:33:57.540Z,98213.69
2022-09-24T16:36:25.285Z,98215.69
2022-09-24T16:38:52.999Z,98224.66
2022-09-24T16:41:20.802Z,98217.72
2022-09-24T16:43:48.612Z,98223.34
2022-09-24T16:46:20.439Z,98222.88
2022-09-24T16:48:51.234Z,98223.38
2022-09-24T16:51:19.301Z,98223.03
2022-09-24T16:53:51.238Z,98228.53
2022-09-24T16:56:18.971Z,98220.50
2022-09-24T16:58:47.664Z,98225.69
2022-09-24T17:01:19.847Z,98217.63
2022-09-24T17:03:53.252Z,98213.13
2022-09-24T17:06:22.390Z,98215.94
2022-09-24T17:09:10.027Z,98213.59
2022-09-24T17:11:40.022Z,98217.75
2022-09-24T17:14:08.616Z,98209.59
2022-09-24T17:16:36.356Z,98204.91
2022-09-24T17:19:09.237Z,98204.56
2022-09-24T17:21:37.842Z,98209.09
2022-09-24T17:24:06.737Z,98217.28
2022-09-24T17:26:34.864Z,98216.09
2022-09-24T17:29:02.970Z,98223.78
2022-09-24T17:31:31.269Z,98215.09
2022-09-24T17:34:00.696Z,98227.97
2022-09-24T17:36:36.085Z,98232.00
2022-09-24T17:39:05.389Z,98236.38
2022-09-24T17:41:33.500Z,98238.22
2022-09-24T17:44:01.803Z,98249.25
2022-09-24T17:46:31.725Z,98239.06
2022-09-24T17:49:01.508Z,98235.72
2022-09-24T17:51:32.445Z,98247.25
2022-09-24T17:54:03.611Z,98250.38
2022-09-24T17:56:33.090Z,98244.06
2022-09-24T17:59:02.913Z,98249.91
2022-09-24T18:01:35.786Z,98258.56
2022-09-24T18:04:05.881Z,98254.75
2022-09-24T18:06:36.453Z,98252.72
2022-09-24T18:09:06.313Z,98254.09
2022-09-24T18:11:38.125Z,98259.75
2022-09-24T18:14:05.977Z,98254.25
2022-09-24T18:16:34.838Z,98255.06
2022-09-24T18:19:03.687Z,98252.41
2022-09-24T18:21:31.690Z,98259.59
2022-09-24T18:24:00.822Z,98257.44
2022-09-24T18:26:35.133Z,98255.41
2022-09-24T18:29:05.903Z,98255.41
2022-09-24T18:31:34.758Z,98253.44
2022-09-24T18:34:06.029Z,98260.44
2022-09-24T18:36:35.965Z,98262.75
2022-09-24T18:39:06.319Z,98262.25
2022-09-24T18:41:36.324Z,98268.63
2022-09-24T18:44:05.143Z,98266.09
2022-09-24T18:46:34.518Z,98275.47
2022-09-24T18:49:06.186Z,98278.16
2022-09-24T18:51:35.575Z,98277.31
2022-09-24T18:54:05.295Z,98275.31
2022-09-24T18:56:35.064Z,98279.81
2022-09-24T18:59:09.440Z,98272.81
2022-09-24T19:01:38.414Z,98272.06
2022-09-24T19:04:07.874Z,98270.53
2022-09-24T19:06:36.492Z,98271.59
2022-09-24T19:09:07.783Z,98275.78
2022-09-24T19:11:37.098Z,98277.13
2022-09-24T19:14:05.214Z,98270.28
2022-09-24T19:16:33.506Z,98264.75
2022-09-24T19:19:02.754Z,98269.44
2022-09-24T19:21:31.060Z,98272.78
2022-09-24T19:24:00.537Z,98270.94
2022-09-24T19:26:30.758Z,98273.13
2022-09-24T19:29:00.504Z,98268.47
2022-09-24T19:31:30.540Z,98267.75
2022-09-24T19:34:00.056Z,98271.09
2022-09-24T19:36:27.832Z,98273.81
2022-09-24T19:38:56.093Z,98270.44
2022-09-24T19:41:27.435Z,98275.44
2022-09-24T19:43:56.853Z,98270.75
2022-09-24T19:46:28.337Z,98275.41
2022-09-24T19:48:58.877Z,98273.75
2022-09-24T19:51:28.363Z,98271.69
2022-09-24T19:53:57.566Z,98266.53
2022-09-24T19:56:25.570Z,98264.53
2022-09-24T19:58:55.211Z,98268.28
2022-09-24T20:01:24.766Z,98266.38
2022-09-24T20:03:53.892Z,98265.00
2022-09-24T20:06:25.346Z,98261.00
2022-09-24T20:08:53.390Z,98253.69
2022-09-24T20:11:23.003Z,98252.84
2022-09-24T20:13:52.630Z,98260.69
2022-09-24T20:16:22.298Z,98246.34
2022-09-24T20:18:51.259Z,98254.34
2022-09-24T20:21:21.128Z,98257.78
2022-09-24T20:23:49.609Z,98247.91
2022-09-24T20:26:35.750Z,98254.63
2022-09-24T20:29:04.126Z,98257.81
2022-09-24T20:31:33.377Z,98264.00
2022-09-24T20:34:01.126Z,98265.34
2022-09-24T20:36:30.217Z,98262.50
2022-09-24T20:38:59.464Z,98262.50
2022-09-24T20:41:27.621Z,98270.38
2022-09-24T20:43:56.369Z,98276.53
2022-09-24T20:46:28.595Z,98265.03
2022-09-24T20:48:58.386Z,98266.34
2022-09-24T20:51:27.225Z,98277.19
2022-09-24T20:53:57.865Z,98267.31
2022-09-24T20:56:26.743Z,98272.91
2022-09-24T20:58:54.856Z,98275.75
2022-09-24T21:01:22.791Z,98272.41
2022-09-24T21:03:50.758Z,98272.13
2022-09-24T21:06:22.588Z,98276.31
2022-09-24T21:08:53.260Z,98271.78
2022-09-24T21:11:26.424Z,98270.97
2022-09-24T21:13:56.045Z,98270.25
2022-09-24T21:16:25.667Z,98268.03
2022-09-24T21:18:55.099Z,98270.25
2022-09-24T21:21:25.088Z,98271.88
2022-09-24T21:23:55.976Z,98276.28
2022-09-24T21:26:27.357Z,98273.75
2022-09-24T21:28:56.711Z,98274.84
2022-09-24T21:31:30.516Z,98282.03
2022-09-24T21:34:01.228Z,98280.81
2022-09-24T21:36:31.648Z,98278.63
2022-09-24T21:39:01.423Z,98283.44
2022-09-24T21:41:32.394Z,98278.53
2022-09-24T21:44:00.669Z,98281.28
2022-09-24T21:46:31.282Z,98279.22
2022-09-24T21:49:02.023Z,98282.72
2022-09-24T21:51:30.193Z,98285.91
2022-09-24T21:54:01.634Z,98290.28
2022-09-24T21:56:32.005Z,98288.63
2022-09-24T21:59:00.177Z,98279.00
2022-09-24T22:01:30.550Z,98285.81
2022-09-24T22:03:59.995Z,98285.84
2022-09-24T22:06:29.607Z,98281.84
2022-09-24T22:08:59.308Z,98281.69
2022-09-24T22:11:27.249Z,98279.38
2022-09-24T22:14:00.990Z,98284.75
2022-09-24T22:16:29.567Z,98280.16
2022-09-24T22:18:57.701Z,98272.00
2022-09-24T22:21:25.946Z,98286.13
2022-09-24T22:23:54.194Z,98275.81
2022-09-24T22:26:26.085Z,98280.16
2022-09-24T22:28:54.838Z,98288.34
2022-09-24T22:31:24.663Z,98285.38
2022-09-24T22:34:10.271Z,98287.41
2022-09-24T22:36:38.489Z,98287.09
2022-09-24T22:39:07.526Z,98290.34
2022-09-24T22:41:38.389Z,98295.56
2022-09-24T22:44:06.542Z,98286.50
2022-09-24T22:46:38.102Z,98284.81
2022-09-24T22:49:06.787Z,98298.41
2022-09-24T22:51:35.283Z,98293.13
2022-09-24T22:54:03.092Z,98285.19
2022-09-24T22:56:30.997Z,98285.50
2022-09-24T22:59:00.761Z,98274.63
2022-09-24T23:01:31.301Z,98274.28
2022-09-24T23:04:01.438Z,98276.47
2022-09-24T23:06:30.787Z,98282.56
2022-09-24T23:08:58.594Z,98274.69
2022-09-24T23:11:28.420Z,98273.53
2022-09-24T23:13:57.909Z,98275.81
2022-09-24T23:16:28.950Z,98274.53
2022-09-24T23:18:58.801Z,98269.44
2022-09-24T23:21:31.596Z,98273.41
2022-09-24T23:24:01.443Z,98274.63
2022-09-24T23:26:29.495Z,98282.66
2022-09-24T23:28:58.543Z,98277.84
2022-09-24T23:31:28.063Z,98278.69
2022-09-24T23:33:57.220Z,98280.47
2022-09-24T23:36:26.247Z,98273.47
2022-09-24T23:38:55.347Z,98272.09
2022-09-24T23:41:23.419Z,98273.25
2022-09-24T23:43:51.541Z,98271.13
2022-09-24T23:46:21.847Z,98273.16
2022-09-24T23:48:49.688Z,98274.63
2022-09-24T23:51:19.491Z,98276.94
2022-09-24T23:53:47.525Z,98273.06
2022-09-24T23:56:16.689Z,98273.41
2022-09-24T23:58:45.923Z,98272.56
